Kapetan Anestis — SW5336 — position and weather

sailwx.info

Track history (hours):
 
Tides and Currents Weather Stations Pressure Air Temp Water Temp Dewpoint Dewpoint Depression Visibility Wind Speed Wind Dir Waves Ship Positions

Kapetan Anestis

Last reported at 2017-Sep-01 09:35 UTC. Time now 2017-Sep-22 02:38 UTC.
Position N 39°57' E 023°60'.
Warning: this ship's position is 20 days out of date.

Length 23 m; draft 2.9 m.

Type: Fishing. MMSI: 239053000.

Date/timePositionNaut miles runAvg speedWind from/ knotsBaromVisibWave heightAir tempDewpointWater temp
2017-Sep-01 09:35N 39°57' E 023°60'2 9.1
2017-Sep-01 09:23N 39°58' E 024°02'4 9.4
2017-Sep-01 09:00N 39°59' E 024°06'610.0
2017-Sep-01 08:25N 40°03' E 024°12'410.5
2017-Sep-01 08:00N 40°05' E 024°17'7 8.6
2017-Sep-01 07:09N 40°11' E 024°23'1 9.6
2017-Sep-01 07:00N 40°12' E 024°23'5 9.6
2017-Sep-01 06:30N 40°16' E 024°19'5 9.7
2017-Sep-01 05:59N 40°20' E 024°15'16 1.3
2017-Aug-31 17:27N 40°29' E 023°57'4 0.2
2017-Aug-30 21:12N 40°25' E 023°54'  
2017-Aug-28 11:00N 40°24' E 023°54'0 0.0
2017-Aug-28 10:30N 40°24' E 023°54'0 0.0
2017-Aug-28 10:00N 40°24' E 023°54'0 0.0
2017-Aug-28 09:29N 40°24' E 023°54'0 0.0
2017-Aug-28 09:00N 40°24' E 023°54'4 0.4
2017-Aug-27 23:09N 40°27' E 023°56'0 0.0
2017-Aug-27 23:00N 40°27' E 023°56'0 0.0
2017-Aug-27 22:30N 40°27' E 023°56'3 4.0
2017-Aug-27 21:41N 40°24' E 023°54'0 0.9
2017-Aug-27 21:29N 40°24' E 023°54'5 7.8
2017-Aug-27 20:49N 40°28' E 023°56'0 0.5
2017-Aug-27 20:30N 40°28' E 023°56'0 0.2
2017-Aug-27 19:50N 40°29' E 023°56'1 1.6
2017-Aug-27 19:30N 40°28' E 023°56'0 0.0
2017-Aug-27 18:14N 40°28' E 023°56'0 0.1
2017-Aug-27 18:00N 40°28' E 023°56'0 0.6
2017-Aug-27 17:29N 40°28' E 023°56'3 5.2
2017-Aug-27 16:59N 40°26' E 023°55'1 0.0
2017-Aug-26 21:08N 40°26' E 023°54'1 7.2
2017-Aug-26 20:58N 40°28' E 023°54'0 0.3
2017-Aug-26 20:30N 40°27' E 023°54'0 0.2
2017-Aug-26 20:00N 40°27' E 023°54'0 0.9
2017-Aug-26 19:30N 40°27' E 023°54'0 0.0
2017-Aug-26 19:00N 40°27' E 023°54'0 0.0
2017-Aug-26 18:24N 40°27' E 023°54'0 0.1
2017-Aug-26 18:00N 40°27' E 023°54'1 1.0
2017-Aug-26 17:30N 40°27' E 023°54'3 6.7
2017-Aug-26 17:00N 40°24' E 023°54'0 0.9
2017-Aug-26 16:30N 40°24' E 023°54'3 0.2
2017-Aug-25 20:43N 40°27' E 023°56'1 5.3
2017-Aug-25 20:29N 40°28' E 023°57'0 0.1
2017-Aug-25 19:56N 40°28' E 023°57'0 0.9
2017-Aug-25 19:24N 40°28' E 023°56'0 0.1
2017-Aug-25 19:00N 40°28' E 023°57'0 0.0
2017-Aug-25 18:29N 40°28' E 023°57'0 0.0
2017-Aug-25 18:00N 40°28' E 023°57'0 0.2
2017-Aug-25 17:30N 40°28' E 023°56'3 6.5
2017-Aug-25 17:00N 40°25' E 023°54'2 2.8
2017-Aug-25 16:25N 40°24' E 023°54'0 0.0
2017-Aug-24 23:11N 40°24' E 023°54'0 0.0
2017-Aug-24 23:00N 40°24' E 023°54'0 0.0
2017-Aug-24 22:30N 40°24' E 023°54'6 5.0
2017-Aug-24 21:17N 40°30' E 023°55'  
Track history (hours):
 
Tides and Currents Weather Stations Pressure Air Temp Water Temp Dewpoint Dewpoint Depression Visibility Wind Speed Wind Dir Waves Ship Positions

Kapetan Anestis

Last reported at 2017-Sep-01 09:35 UTC. Time now 2017-Sep-22 02:38 UTC.
Position N 39°57' E 023°60'.
Warning: this ship's position is 20 days out of date.

Length 23 m; draft 2.9 m.

Type: Fishing. MMSI: 239053000.

Date/timePositionNaut miles runAvg speedWind from/ knotsBaromVisibWave heightAir tempDewpointWater temp
2017-Sep-01 09:35N 39°57' E 023°60'2 9.1
2017-Sep-01 09:23N 39°58' E 024°02'4 9.4
2017-Sep-01 09:00N 39°59' E 024°06'610.0
2017-Sep-01 08:25N 40°03' E 024°12'410.5
2017-Sep-01 08:00N 40°05' E 024°17'7 8.6
2017-Sep-01 07:09N 40°11' E 024°23'1 9.6
2017-Sep-01 07:00N 40°12' E 024°23'5 9.6
2017-Sep-01 06:30N 40°16' E 024°19'5 9.7
2017-Sep-01 05:59N 40°20' E 024°15'16 1.3
2017-Aug-31 17:27N 40°29' E 023°57'4 0.2
2017-Aug-30 21:12N 40°25' E 023°54'  
2017-Aug-28 11:00N 40°24' E 023°54'0 0.0
2017-Aug-28 10:30N 40°24' E 023°54'0 0.0
2017-Aug-28 10:00N 40°24' E 023°54'0 0.0
2017-Aug-28 09:29N 40°24' E 023°54'0 0.0
2017-Aug-28 09:00N 40°24' E 023°54'4 0.4
2017-Aug-27 23:09N 40°27' E 023°56'0 0.0
2017-Aug-27 23:00N 40°27' E 023°56'0 0.0
2017-Aug-27 22:30N 40°27' E 023°56'3 4.0
2017-Aug-27 21:41N 40°24' E 023°54'0 0.9
2017-Aug-27 21:29N 40°24' E 023°54'5 7.8
2017-Aug-27 20:49N 40°28' E 023°56'0 0.5
2017-Aug-27 20:30N 40°28' E 023°56'0 0.2
2017-Aug-27 19:50N 40°29' E 023°56'1 1.6
2017-Aug-27 19:30N 40°28' E 023°56'0 0.0
2017-Aug-27 18:14N 40°28' E 023°56'0 0.1
2017-Aug-27 18:00N 40°28' E 023°56'0 0.6
2017-Aug-27 17:29N 40°28' E 023°56'3 5.2
2017-Aug-27 16:59N 40°26' E 023°55'1 0.0
2017-Aug-26 21:08N 40°26' E 023°54'1 7.2
2017-Aug-26 20:58N 40°28' E 023°54'0 0.3
2017-Aug-26 20:30N 40°27' E 023°54'0 0.2
2017-Aug-26 20:00N 40°27' E 023°54'0 0.9
2017-Aug-26 19:30N 40°27' E 023°54'0 0.0
2017-Aug-26 19:00N 40°27' E 023°54'0 0.0
2017-Aug-26 18:24N 40°27' E 023°54'0 0.1
2017-Aug-26 18:00N 40°27' E 023°54'1 1.0
2017-Aug-26 17:30N 40°27' E 023°54'3 6.7
2017-Aug-26 17:00N 40°24' E 023°54'0 0.9
2017-Aug-26 16:30N 40°24' E 023°54'3 0.2
2017-Aug-25 20:43N 40°27' E 023°56'1 5.3
2017-Aug-25 20:29N 40°28' E 023°57'0 0.1
2017-Aug-25 19:56N 40°28' E 023°57'0 0.9
2017-Aug-25 19:24N 40°28' E 023°56'0 0.1
2017-Aug-25 19:00N 40°28' E 023°57'0 0.0
2017-Aug-25 18:29N 40°28' E 023°57'0 0.0
2017-Aug-25 18:00N 40°28' E 023°57'0 0.2
2017-Aug-25 17:30N 40°28' E 023°56'3 6.5
2017-Aug-25 17:00N 40°25' E 023°54'2 2.8
2017-Aug-25 16:25N 40°24' E 023°54'0 0.0
2017-Aug-24 23:11N 40°24' E 023°54'0 0.0
2017-Aug-24 23:00N 40°24' E 023°54'0 0.0
2017-Aug-24 22:30N 40°24' E 023°54'6 5.0
2017-Aug-24 21:17N 40°30' E 023°55'  

Dump ship's entire track history